createdAt,value
2023-05-14T00:01:39.040Z,9.10
2023-05-14T00:04:42.433Z,9.11
2023-05-14T00:07:46.090Z,9.11
2023-05-14T00:10:49.443Z,9.06
2023-05-14T00:13:54.617Z,9.00
2023-05-14T00:16:59.520Z,8.96
2023-05-14T00:20:03.197Z,8.90
2023-05-14T00:23:06.583Z,8.87
2023-05-14T00:26:10.353Z,8.85
2023-05-14T00:29:16.782Z,8.82
2023-05-14T00:32:20.744Z,8.77
2023-05-14T00:35:24.447Z,8.75
2023-05-14T00:38:28.728Z,8.73
2023-05-14T00:41:32.199Z,8.71
2023-05-14T00:44:37.505Z,8.69
2023-05-14T00:47:41.338Z,8.66
2023-05-14T00:50:45.319Z,8.62
2023-05-14T00:53:49.935Z,8.60
2023-05-14T00:56:55.136Z,8.54
2023-05-14T01:00:00.484Z,8.47
2023-05-14T01:03:07.634Z,8.44
2023-05-14T01:06:19.585Z,8.42
2023-05-14T01:09:34.564Z,8.43
2023-05-14T01:12:48.958Z,8.41
2023-05-14T01:15:58.652Z,8.37
2023-05-14T01:19:06.629Z,8.32
2023-05-14T01:22:12.796Z,8.31
2023-05-14T01:25:16.268Z,8.30
2023-05-14T01:28:26.369Z,8.30
2023-05-14T01:31:34.865Z,8.28
2023-05-14T01:34:41.974Z,8.30
2023-05-14T01:37:50.084Z,8.29
2023-05-14T01:40:55.816Z,8.26
2023-05-14T01:43:59.807Z,8.19
2023-05-14T01:47:03.809Z,8.18
2023-05-14T01:50:08.435Z,8.16
2023-05-14T01:53:13.755Z,8.18
2023-05-14T01:56:17.270Z,8.16
2023-05-14T01:59:21.116Z,8.13
2023-05-14T02:02:24.640Z,8.10
2023-05-14T02:05:28.578Z,8.07
2023-05-14T02:08:34.042Z,8.01
2023-05-14T02:11:37.980Z,7.97
2023-05-14T02:14:41.671Z,7.90
2023-05-14T02:17:45.714Z,7.87
2023-05-14T02:20:49.256Z,7.85
2023-05-14T02:23:56.113Z,7.82
2023-05-14T02:27:01.002Z,7.81
2023-05-14T02:30:06.217Z,7.73
2023-05-14T02:33:09.944Z,7.62
2023-05-14T02:36:13.894Z,7.54
2023-05-14T02:39:18.755Z,7.46
2023-05-14T02:42:22.806Z,7.40
2023-05-14T02:45:26.718Z,7.35
2023-05-14T02:48:30.630Z,7.28
2023-05-14T02:51:34.068Z,7.18
2023-05-14T02:54:39.664Z,7.11
2023-05-14T02:57:43.206Z,7.06
2023-05-14T03:00:47.182Z,7.08
2023-05-14T03:03:50.997Z,7.13
2023-05-14T03:06:55.437Z,7.15
2023-05-14T03:10:00.777Z,7.19
2023-05-14T03:13:04.582Z,7.25
2023-05-14T03:16:08.742Z,7.28
2023-05-14T03:19:13.606Z,7.32
2023-05-14T03:22:17.330Z,7.38
2023-05-14T03:25:22.559Z,7.44
2023-05-14T03:28:26.308Z,7.46
2023-05-14T03:31:30.116Z,7.50
2023-05-14T03:34:33.992Z,7.49
2023-05-14T03:37:38.128Z,7.54
2023-05-14T03:40:43.123Z,7.54
2023-05-14T03:43:46.942Z,7.56
2023-05-14T03:46:50.374Z,7.62
2023-05-14T03:49:54.388Z,7.69
2023-05-14T03:52:57.836Z,7.76
2023-05-14T03:56:03.323Z,7.82
2023-05-14T03:59:06.854Z,7.88
2023-05-14T04:02:10.965Z,7.97
2023-05-14T04:05:14.439Z,8.00
2023-05-14T04:08:18.923Z,8.03
2023-05-14T04:11:23.794Z,8.11
2023-05-14T04:14:27.577Z,8.22
2023-05-14T04:17:31.150Z,8.35
2023-05-14T04:20:35.180Z,8.48
2023-05-14T04:23:38.663Z,8.61
2023-05-14T04:26:43.715Z,8.70
2023-05-14T04:29:47.085Z,8.80
2023-05-14T04:32:51.432Z,8.89
2023-05-14T04:35:55.151Z,9.02
2023-05-14T04:38:59.105Z,9.16
2023-05-14T04:42:03.918Z,9.28
2023-05-14T04:45:09.197Z,9.45
2023-05-14T04:48:12.690Z,9.58
2023-05-14T04:51:16.486Z,9.74
2023-05-14T04:54:19.958Z,9.91
2023-05-14T04:57:25.057Z,10.05
2023-05-14T05:00:28.628Z,10.18
2023-05-14T05:03:33.183Z,10.29
2023-05-14T05:06:36.592Z,10.42
2023-05-14T05:09:40.262Z,10.49
2023-05-14T05:12:45.057Z,10.59
2023-05-14T05:15:48.942Z,10.67
2023-05-14T05:18:52.411Z,10.79
2023-05-14T05:21:56.418Z,10.87
2023-05-14T05:25:00.102Z,10.98
2023-05-14T05:28:05.839Z,11.05
2023-05-14T05:31:09.396Z,11.13
2023-05-14T05:34:13.696Z,11.20
2023-05-14T05:37:17.058Z,11.28
2023-05-14T05:40:20.912Z,11.34
2023-05-14T05:43:25.744Z,11.41
2023-05-14T05:46:29.652Z,11.49
2023-05-14T05:49:33.550Z,11.59
2023-05-14T05:52:37.221Z,11.73
2023-05-14T05:55:42.254Z,11.80
2023-05-14T05:58:47.393Z,11.84
2023-05-14T06:01:51.142Z,11.94
2023-05-14T06:04:55.032Z,12.01
2023-05-14T06:07:58.464Z,12.11
2023-05-14T06:11:02.282Z,12.20
2023-05-14T06:14:07.433Z,12.28
2023-05-14T06:17:11.944Z,12.38
2023-05-14T06:20:15.562Z,12.46
2023-05-14T06:23:19.305Z,12.56
2023-05-14T06:26:23.440Z,12.61
2023-05-14T06:29:28.720Z,12.68
2023-05-14T06:32:32.169Z,12.76
2023-05-14T06:35:35.881Z,12.85
2023-05-14T06:38:39.305Z,12.95
2023-05-14T06:41:42.936Z,13.03
2023-05-14T06:44:52.545Z,13.10
2023-05-14T06:47:56.841Z,13.13
2023-05-14T06:51:01.203Z,13.16
2023-05-14T06:54:08.018Z,13.19
2023-05-14T06:57:11.413Z,13.25
2023-05-14T07:00:18.653Z,13.33
2023-05-14T07:03:22.701Z,13.41
2023-05-14T07:06:29.266Z,13.48
2023-05-14T07:09:32.683Z,13.55
2023-05-14T07:12:36.576Z,13.61
2023-05-14T07:15:41.418Z,13.66
2023-05-14T07:18:46.637Z,13.73
2023-05-14T07:21:50.084Z,13.85
2023-05-14T07:24:53.952Z,14.01
2023-05-14T07:27:57.368Z,14.10
2023-05-14T07:31:02.627Z,14.27
2023-05-14T07:34:06.065Z,14.51
2023-05-14T07:37:10.370Z,14.75
2023-05-14T07:40:14.119Z,15.01
2023-05-14T07:43:17.829Z,15.25
2023-05-14T07:46:23.908Z,15.29
2023-05-14T07:49:27.740Z,15.47
2023-05-14T07:52:31.164Z,15.64
2023-05-14T07:55:34.946Z,15.68
2023-05-14T07:58:38.273Z,15.84
2023-05-14T08:01:43.446Z,15.98
2023-05-14T08:04:47.357Z,16.02
2023-05-14T08:07:51.356Z,16.20
2023-05-14T08:10:54.790Z,16.53
2023-05-14T08:13:58.586Z,16.83
2023-05-14T08:17:03.563Z,16.83
2023-05-14T08:20:09.904Z,16.84
2023-05-14T08:23:13.294Z,16.87
2023-05-14T08:26:17.126Z,16.96
2023-05-14T08:29:20.692Z,17.02
2023-05-14T08:32:25.881Z,17.22
2023-05-14T08:35:29.235Z,17.33
2023-05-14T08:38:32.994Z,17.33
2023-05-14T08:41:37.468Z,17.19
2023-05-14T08:44:49.941Z,17.15
2023-05-14T08:47:56.934Z,17.27
2023-05-14T08:51:01.811Z,17.32
2023-05-14T08:54:07.003Z,17.32
2023-05-14T08:57:11.593Z,17.24
2023-05-14T09:00:16.309Z,17.20
2023-05-14T09:03:23.169Z,17.43
2023-05-14T09:06:27.392Z,17.57
2023-05-14T09:09:32.126Z,17.64
2023-05-14T09:20:32.499Z,18.10
2023-05-14T09:23:44.896Z,18.28
2023-05-14T09:26:52.788Z,18.34
2023-05-14T09:29:56.404Z,18.38
2023-05-14T09:32:59.828Z,18.59
2023-05-14T09:36:05.210Z,18.76
2023-05-14T09:39:08.665Z,18.83
2023-05-14T09:42:12.341Z,18.68
2023-05-14T09:45:16.216Z,18.58
2023-05-14T09:48:20.199Z,18.58
2023-05-14T09:51:25.783Z,18.71
2023-05-14T09:54:30.142Z,18.96
2023-05-14T09:57:33.648Z,19.03
2023-05-14T10:00:37.966Z,19.15
2023-05-14T10:03:42.034Z,19.19
2023-05-14T10:06:52.342Z,19.27
2023-05-14T10:10:02.944Z,19.31
2023-05-14T10:13:15.422Z,19.44
2023-05-14T10:16:28.386Z,19.49
2023-05-14T10:19:35.487Z,19.53
2023-05-14T10:22:41.007Z,19.38
2023-05-14T10:25:45.554Z,19.50
2023-05-14T10:28:49.471Z,19.45
2023-05-14T10:31:55.509Z,19.51
2023-05-14T10:35:03.089Z,19.61
2023-05-14T10:38:10.929Z,19.85
2023-05-14T10:41:17.865Z,20.01
2023-05-14T10:44:23.135Z,20.29
2023-05-14T10:47:28.370Z,20.80
2023-05-14T10:50:32.447Z,21.15
2023-05-14T10:53:39.783Z,21.63
2023-05-14T10:56:46.937Z,21.93
2023-05-14T10:59:54.956Z,22.18
2023-05-14T11:02:59.562Z,22.27
2023-05-14T11:06:05.359Z,22.35
2023-05-14T11:09:11.703Z,22.33
2023-05-14T11:12:15.425Z,22.26
2023-05-14T11:15:22.273Z,22.39
2023-05-14T11:18:29.705Z,22.64
2023-05-14T11:21:33.755Z,22.87
2023-05-14T11:24:39.139Z,22.86
2023-05-14T11:27:45.545Z,22.79
2023-05-14T11:30:49.463Z,22.90
2023-05-14T11:33:54.279Z,23.18
2023-05-14T11:36:57.678Z,23.50
2023-05-14T11:40:02.971Z,23.77
2023-05-14T11:43:06.483Z,23.98
2023-05-14T11:46:19.131Z,24.17
2023-05-14T11:49:23.762Z,24.52
2023-05-14T11:52:27.730Z,24.58
2023-05-14T11:55:35.771Z,24.74
2023-05-14T11:58:39.590Z,24.79
2023-05-14T12:01:43.024Z,24.85
2023-05-14T12:04:52.408Z,25.04
2023-05-14T12:07:56.130Z,25.42
2023-05-14T12:11:02.528Z,25.47
2023-05-14T12:14:13.355Z,25.42
2023-05-14T12:17:19.804Z,25.35
2023-05-14T12:20:26.320Z,25.07
2023-05-14T12:23:32.206Z,24.79
2023-05-14T12:26:38.804Z,24.34
2023-05-14T12:29:44.466Z,23.98
2023-05-14T12:32:48.891Z,23.79
2023-05-14T12:35:53.824Z,23.82
2023-05-14T12:39:03.544Z,23.56
2023-05-14T12:42:08.870Z,23.32
2023-05-14T12:45:13.173Z,23.21
2023-05-14T12:48:16.938Z,23.18
2023-05-14T12:51:20.404Z,23.15
2023-05-14T12:54:24.357Z,23.31
2023-05-14T12:57:30.242Z,23.37
2023-05-14T13:00:34.031Z,23.40
2023-05-14T13:03:37.476Z,23.31
2023-05-14T13:06:41.601Z,23.16
2023-05-14T13:09:45.056Z,23.23
2023-05-14T13:12:50.649Z,23.13
2023-05-14T13:15:55.554Z,23.10
2023-05-14T13:18:59.315Z,22.93
2023-05-14T13:22:02.736Z,22.75
2023-05-14T13:25:07.984Z,22.77
2023-05-14T13:28:12.899Z,22.82
2023-05-14T13:31:16.840Z,22.73
2023-05-14T13:34:20.596Z,22.68
2023-05-14T13:37:25.616Z,22.47
2023-05-14T13:40:29.025Z,22.40
2023-05-14T13:43:36.577Z,22.33
2023-05-14T13:46:40.084Z,22.38
2023-05-14T13:49:44.472Z,22.36
2023-05-14T13:52:47.859Z,22.36
2023-05-14T13:55:56.254Z,22.40
2023-05-14T13:59:01.125Z,22.30
2023-05-14T14:02:05.830Z,22.16
2023-05-14T14:05:10.487Z,22.08
2023-05-14T14:08:23.374Z,21.92
2023-05-14T14:11:28.007Z,21.91
2023-05-14T14:14:33.285Z,21.74
2023-05-14T14:17:36.860Z,21.74
2023-05-14T14:20:40.641Z,21.98
2023-05-14T14:23:43.969Z,22.48
2023-05-14T14:26:47.588Z,22.75
2023-05-14T14:29:52.594Z,23.34
2023-05-14T14:32:57.023Z,24.20
2023-05-14T14:36:00.465Z,24.97
2023-05-14T14:39:04.856Z,25.58
2023-05-14T14:42:08.604Z,25.98
2023-05-14T14:45:14.117Z,25.86
2023-05-14T14:48:26.304Z,25.50
2023-05-14T14:51:30.261Z,25.47
2023-05-14T14:54:33.725Z,25.26
2023-05-14T14:57:37.376Z,24.81
2023-05-14T15:00:42.353Z,24.32
2023-05-14T15:03:48.227Z,23.88
2023-05-14T15:06:51.688Z,23.48
2023-05-14T15:09:55.484Z,23.09
2023-05-14T15:12:59.985Z,22.79
2023-05-14T15:16:05.214Z,22.53
2023-05-14T15:19:08.937Z,22.20
2023-05-14T15:22:13.181Z,21.86
2023-05-14T15:25:16.784Z,21.52
2023-05-14T15:28:20.736Z,21.36
2023-05-14T15:31:25.928Z,21.13
2023-05-14T15:34:29.796Z,20.99
2023-05-14T15:37:39.230Z,20.83
2023-05-14T15:40:42.979Z,20.75
2023-05-14T15:43:46.413Z,20.61
2023-05-14T15:46:51.842Z,20.43
2023-05-14T15:49:55.576Z,20.24
2023-05-14T15:52:59.309Z,20.09
2023-05-14T15:56:02.742Z,20.00
2023-05-14T15:59:06.380Z,19.90
2023-05-14T16:02:11.879Z,19.82
2023-05-14T16:05:16.020Z,19.69
2023-05-14T16:08:19.401Z,19.61
2023-05-14T16:11:23.060Z,19.58
2023-05-14T16:14:26.557Z,19.55
2023-05-14T16:17:32.812Z,19.51
2023-05-14T16:20:36.277Z,19.45
2023-05-14T16:23:39.933Z,19.38
2023-05-14T16:26:43.589Z,19.32
2023-05-14T16:29:47.376Z,19.25
2023-05-14T16:32:52.454Z,19.16
2023-05-14T16:35:56.284Z,19.10
2023-05-14T16:39:07.087Z,19.00
2023-05-14T16:42:11.333Z,18.93
2023-05-14T16:45:14.997Z,18.83
2023-05-14T16:48:20.036Z,18.78
2023-05-14T16:51:23.934Z,18.74
2023-05-14T16:54:27.612Z,18.70
2023-05-14T16:57:31.340Z,18.65
2023-05-14T17:00:35.002Z,18.59
2023-05-14T17:03:39.954Z,18.52
2023-05-14T17:06:43.646Z,18.44
2023-05-14T17:09:47.011Z,18.39
2023-05-14T17:12:50.674Z,18.32
2023-05-14T17:16:13.154Z,18.26
2023-05-14T17:19:17.834Z,18.19
2023-05-14T17:22:21.789Z,18.09
2023-05-14T17:25:26.414Z,18.03
2023-05-14T17:28:30.960Z,17.99
2023-05-14T17:31:34.397Z,17.93
2023-05-14T17:34:40.068Z,17.87
2023-05-14T17:37:44.119Z,17.79
2023-05-14T17:40:48.000Z,17.75
2023-05-14T17:43:52.458Z,17.70
2023-05-14T17:46:56.810Z,17.62
2023-05-14T17:50:01.619Z,17.57
2023-05-14T17:53:05.455Z,17.51
2023-05-14T17:56:08.864Z,17.48
2023-05-14T17:59:12.882Z,17.41
2023-05-14T18:02:16.267Z,17.34
2023-05-14T18:05:21.616Z,17.30
2023-05-14T18:08:25.079Z,17.24
2023-05-14T18:11:33.657Z,17.20
2023-05-14T18:14:37.110Z,17.10
2023-05-14T18:17:41.045Z,17.05
2023-05-14T18:20:45.906Z,17.02
2023-05-14T18:23:50.108Z,16.98
2023-05-14T18:26:53.526Z,16.95
2023-05-14T18:29:57.258Z,16.94
2023-05-14T18:33:00.806Z,16.92
2023-05-14T18:36:06.840Z,16.90
2023-05-14T18:39:10.709Z,16.89
2023-05-14T18:42:14.426Z,16.87
2023-05-14T18:45:17.972Z,16.85
2023-05-14T18:48:21.960Z,16.82
2023-05-14T18:51:26.746Z,16.80
2023-05-14T18:54:30.485Z,16.77
2023-05-14T18:57:33.984Z,16.72
2023-05-14T19:00:37.759Z,16.71
2023-05-14T19:03:42.260Z,16.69
2023-05-14T19:06:47.825Z,16.65
2023-05-14T19:09:51.198Z,16.62
2023-05-14T19:12:54.904Z,16.59
2023-05-14T19:15:58.573Z,16.55
2023-05-14T19:19:02.454Z,16.53
2023-05-14T19:22:07.600Z,16.50
2023-05-14T19:25:12.314Z,16.47
2023-05-14T19:28:16.575Z,16.40
2023-05-14T19:31:20.792Z,16.37
2023-05-14T19:34:24.177Z,16.33
2023-05-14T19:37:29.751Z,16.27
2023-05-14T19:40:33.113Z,16.21
2023-05-14T19:43:36.811Z,16.17
2023-05-14T19:46:40.526Z,16.16
2023-05-14T19:49:44.592Z,16.12
2023-05-14T19:52:49.603Z,16.12
2023-05-14T19:55:53.288Z,16.08
2023-05-14T19:58:56.778Z,16.07
2023-05-14T20:02:01.139Z,16.04
2023-05-14T20:05:06.690Z,16.00
2023-05-14T20:08:12.097Z,15.95
2023-05-14T20:11:17.900Z,15.91
2023-05-14T20:14:21.542Z,15.84
2023-05-14T20:17:25.191Z,15.77
2023-05-14T20:20:32.181Z,15.72
2023-05-14T20:23:37.955Z,15.59
2023-05-14T20:26:41.552Z,15.44
2023-05-14T20:29:46.642Z,15.29
2023-05-14T20:32:50.470Z,15.09
2023-05-14T20:35:53.900Z,14.93
2023-05-14T20:39:00.616Z,14.79
2023-05-14T20:42:04.012Z,14.62
2023-05-14T20:45:09.383Z,14.54
2023-05-14T20:48:16.146Z,14.47
2023-05-14T20:51:21.537Z,14.40
2023-05-14T20:54:26.301Z,14.32
2023-05-14T20:57:30.251Z,14.26
2023-05-14T21:00:33.599Z,14.21
2023-05-14T21:03:37.965Z,14.13
2023-05-14T21:06:41.691Z,14.08
2023-05-14T21:09:52.107Z,14.06
2023-05-14T21:12:55.456Z,14.03
2023-05-14T21:16:00.226Z,14.04
2023-05-14T21:19:03.707Z,14.04
2023-05-14T21:22:08.441Z,14.03
2023-05-14T21:25:13.209Z,14.01
2023-05-14T21:28:16.841Z,13.97
2023-05-14T21:31:45.238Z,13.98
2023-05-14T21:34:48.983Z,13.97
2023-05-14T21:37:52.849Z,13.98
2023-05-14T21:40:57.890Z,13.96
2023-05-14T21:44:01.498Z,13.96
2023-05-14T21:47:05.862Z,13.93
2023-05-14T21:50:10.538Z,13.87
2023-05-14T21:53:14.202Z,13.82
2023-05-14T21:56:19.150Z,13.81
2023-05-14T21:59:22.931Z,13.78
2023-05-14T22:02:26.556Z,13.77
2023-05-14T22:05:30.838Z,13.77
2023-05-14T22:08:34.407Z,13.78
2023-05-14T22:11:39.524Z,13.74
2023-05-14T22:14:42.875Z,13.71
2023-05-14T22:17:46.904Z,13.71
2023-05-14T22:20:50.383Z,13.74
2023-05-14T22:23:53.988Z,13.72
2023-05-14T22:26:58.866Z,13.70
2023-05-14T22:30:02.603Z,13.69
2023-05-14T22:33:06.362Z,13.68
2023-05-14T22:36:11.518Z,13.65
2023-05-14T22:39:15.040Z,13.62
2023-05-14T22:42:20.397Z,13.60
2023-05-14T22:45:25.159Z,13.56
2023-05-14T22:48:29.098Z,13.50
2023-05-14T22:51:32.735Z,13.45
2023-05-14T22:54:36.389Z,13.43
2023-05-14T22:57:41.262Z,13.38
2023-05-14T23:00:44.950Z,13.33
2023-05-14T23:03:48.426Z,13.28
2023-05-14T23:06:52.153Z,13.26
2023-05-14T23:09:55.728Z,13.24
2023-05-14T23:13:00.792Z,13.23
2023-05-14T23:16:05.997Z,13.22
2023-05-14T23:19:09.902Z,13.20
2023-05-14T23:22:13.618Z,13.19
2023-05-14T23:25:17.486Z,13.18
2023-05-14T23:28:22.704Z,13.14
2023-05-14T23:31:26.388Z,13.13
2023-05-14T23:34:29.986Z,13.11
2023-05-14T23:37:36.766Z,13.08
2023-05-14T23:40:40.279Z,13.03
2023-05-14T23:43:45.394Z,13.01
2023-05-14T23:46:49.203Z,13.01
2023-05-14T23:49:53.006Z,12.95
2023-05-14T23:52:57.158Z,12.93
2023-05-14T23:56:01.116Z,12.88
2023-05-14T23:59:06.301Z,12.84
